createdAt,value
2022-12-04T00:02:02.509Z,8.55
2022-12-04T00:04:29.295Z,10.38
2022-12-04T00:06:58.873Z,9.68
2022-12-04T00:09:25.942Z,8.13
2022-12-04T00:11:52.634Z,8.25
2022-12-04T00:14:19.325Z,9.90
2022-12-04T00:16:46.093Z,10.52
2022-12-04T00:19:12.873Z,8.20
2022-12-04T00:21:39.602Z,7.43
2022-12-04T00:24:06.600Z,9.52
2022-12-04T00:26:33.323Z,6.95
2022-12-04T00:29:00.212Z,8.30
2022-12-04T00:31:27.817Z,8.60
2022-12-04T00:33:54.584Z,8.75
2022-12-04T00:36:22.805Z,8.50
2022-12-04T00:38:49.508Z,9.27
2022-12-04T00:41:18.076Z,9.15
2022-12-04T00:43:45.817Z,11.15
2022-12-04T00:46:12.757Z,8.23
2022-12-04T00:48:39.566Z,8.88
2022-12-04T00:51:11.402Z,9.38
2022-12-04T00:53:38.455Z,11.70
2022-12-04T00:56:09.797Z,11.65
2022-12-04T00:58:36.512Z,9.80
2022-12-04T01:01:08.055Z,10.73
2022-12-04T01:03:35.021Z,8.10
2022-12-04T01:06:02.052Z,9.15
2022-12-04T01:08:28.799Z,8.30
2022-12-04T01:10:55.506Z,11.82
2022-12-04T01:13:23.002Z,9.18
2022-12-04T01:15:49.790Z,9.05
2022-12-04T01:18:16.627Z,8.18
2022-12-04T01:20:50.438Z,8.50
2022-12-04T01:23:17.712Z,8.80
2022-12-04T01:25:52.254Z,8.98
2022-12-04T01:28:19.001Z,9.35
2022-12-04T01:30:45.770Z,8.05
2022-12-04T01:33:12.456Z,9.00
2022-12-04T01:35:39.249Z,9.35
2022-12-04T01:38:05.903Z,10.02
2022-12-04T01:40:32.614Z,9.63
2022-12-04T01:42:59.997Z,10.10
2022-12-04T01:45:50.528Z,10.82
2022-12-04T01:48:27.743Z,10.52
2022-12-04T01:50:58.274Z,9.52
2022-12-04T01:53:24.970Z,8.40
2022-12-04T01:55:51.808Z,9.52
2022-12-04T01:58:20.606Z,9.50
2022-12-04T02:00:51.658Z,8.95
2022-12-04T02:03:18.585Z,7.72
2022-12-04T02:05:45.241Z,9.35
2022-12-04T02:08:11.965Z,8.77
2022-12-04T02:10:49.747Z,9.00
2022-12-04T02:13:40.165Z,11.48
2022-12-04T02:16:19.374Z,8.10
2022-12-04T02:19:00.985Z,8.63
2022-12-04T02:21:37.394Z,9.57
2022-12-04T02:24:50.146Z,9.70
2022-12-04T02:27:41.853Z,7.47
2022-12-04T02:30:12.941Z,8.82
2022-12-04T02:32:43.763Z,8.43
2022-12-04T02:35:18.510Z,9.25
2022-12-04T02:37:52.417Z,8.38
2022-12-04T02:40:31.120Z,8.35
2022-12-04T02:43:07.992Z,8.57
2022-12-04T02:45:39.077Z,9.48
2022-12-04T02:48:06.304Z,12.40
2022-12-04T02:50:34.305Z,12.75
2022-12-04T02:53:09.593Z,11.55
2022-12-04T02:55:39.794Z,10.43
2022-12-04T02:58:28.201Z,9.70
2022-12-04T03:00:55.490Z,10.48
2022-12-04T03:03:24.110Z,12.10
2022-12-04T03:06:06.361Z,10.32
2022-12-04T03:08:44.334Z,12.52
2022-12-04T03:11:11.062Z,11.65
2022-12-04T03:13:48.147Z,10.95
2022-12-04T03:16:18.998Z,10.38
2022-12-04T03:18:48.820Z,12.18
2022-12-04T03:21:18.234Z,8.77
2022-12-04T03:23:48.157Z,10.27
2022-12-04T03:26:20.818Z,11.93
2022-12-04T03:29:03.033Z,8.32
2022-12-04T03:31:42.167Z,8.65
2022-12-04T03:34:08.876Z,8.65
2022-12-04T03:36:37.836Z,7.20
2022-12-04T03:39:19.554Z,9.32
2022-12-04T03:42:08.596Z,8.25
2022-12-04T03:44:39.701Z,8.80
2022-12-04T03:47:17.490Z,9.63
2022-12-04T03:50:09.659Z,7.75
2022-12-04T03:52:48.538Z,11.65
2022-12-04T03:55:24.290Z,12.57
2022-12-04T03:57:53.928Z,12.15
2022-12-04T04:00:21.877Z,10.13
2022-12-04T04:03:00.084Z,9.25
2022-12-04T04:05:27.452Z,9.85
2022-12-04T04:08:21.836Z,10.50
2022-12-04T04:10:51.879Z,11.90
2022-12-04T04:13:44.648Z,11.98
2022-12-04T04:16:30.410Z,13.00
2022-12-04T04:19:15.504Z,13.35
2022-12-04T04:22:00.642Z,10.65
2022-12-04T04:24:41.606Z,11.88
2022-12-04T04:27:08.301Z,13.07
2022-12-04T04:29:35.251Z,13.52
2022-12-04T04:32:30.369Z,14.88
2022-12-04T04:35:05.295Z,12.18
2022-12-04T04:38:09.349Z,10.70
2022-12-04T04:41:06.981Z,10.38
2022-12-04T04:43:56.448Z,10.70
2022-12-04T04:46:25.594Z,9.52
2022-12-04T04:48:53.428Z,13.00
2022-12-04T04:51:20.210Z,11.00
2022-12-04T04:53:49.671Z,13.90
2022-12-04T04:56:16.418Z,9.85
2022-12-04T04:58:43.258Z,10.13
2022-12-04T05:01:17.993Z,10.50
2022-12-04T05:03:44.737Z,11.35
2022-12-04T05:06:11.435Z,9.25
2022-12-04T05:08:38.247Z,11.40
2022-12-04T05:11:05.082Z,11.65
2022-12-04T05:13:31.892Z,9.13
2022-12-04T05:16:03.233Z,12.38
2022-12-04T05:18:30.096Z,11.63
2022-12-04T05:20:56.836Z,12.32
2022-12-04T05:23:23.740Z,13.85
2022-12-04T05:25:50.405Z,11.80
2022-12-04T05:28:17.065Z,14.32
2022-12-04T05:30:43.713Z,11.65
2022-12-04T05:33:10.612Z,11.07
2022-12-04T05:35:37.266Z,13.98
2022-12-04T05:38:03.929Z,12.60
2022-12-04T05:40:30.662Z,13.05
2022-12-04T05:42:57.517Z,11.60
2022-12-04T05:45:24.185Z,10.88
2022-12-04T05:47:50.976Z,10.88
2022-12-04T05:50:17.698Z,9.70
2022-12-04T05:52:44.405Z,8.18
2022-12-04T05:55:11.203Z,8.18
2022-12-04T05:57:37.952Z,8.95
2022-12-04T06:00:05.577Z,8.50
2022-12-04T06:02:34.236Z,9.52
2022-12-04T06:05:01.115Z,8.90
2022-12-04T06:07:27.870Z,8.10
2022-12-04T06:09:55.495Z,7.70
2022-12-04T06:12:22.425Z,8.38
2022-12-04T06:14:49.070Z,7.07
2022-12-04T06:17:15.749Z,8.98
2022-12-04T06:19:42.513Z,8.38
2022-12-04T06:22:09.298Z,9.32
2022-12-04T06:24:36.051Z,9.98
2022-12-04T06:29:49.617Z,11.45
2022-12-04T06:32:21.096Z,10.23
2022-12-04T06:35:13.087Z,9.07
2022-12-04T06:37:39.786Z,7.93
2022-12-04T06:40:07.141Z,9.70
2022-12-04T06:42:33.926Z,10.93
2022-12-04T06:45:00.581Z,9.57
2022-12-04T06:47:27.371Z,10.43
2022-12-04T06:49:54.606Z,10.63
2022-12-04T06:52:21.478Z,10.70
2022-12-04T06:54:48.317Z,10.00
2022-12-04T06:57:15.070Z,9.25
2022-12-04T06:59:41.788Z,9.82
2022-12-04T07:02:09.541Z,8.05
2022-12-04T07:04:36.338Z,9.75
2022-12-04T07:07:03.082Z,10.48
2022-12-04T07:09:29.739Z,9.55
2022-12-04T07:11:56.397Z,9.18
2022-12-04T07:14:23.196Z,10.00
2022-12-04T07:16:50.266Z,10.95
2022-12-04T07:19:17.249Z,11.38
2022-12-04T07:21:44.061Z,11.18
2022-12-04T07:24:15.460Z,10.15
2022-12-04T07:26:42.817Z,10.00
2022-12-04T07:29:10.714Z,8.50
2022-12-04T07:31:37.739Z,8.30
2022-12-04T07:34:04.448Z,7.78
2022-12-04T07:36:31.672Z,6.88
2022-12-04T07:38:58.599Z,8.88
2022-12-04T07:41:25.340Z,9.73
2022-12-04T07:43:52.153Z,9.70
2022-12-04T07:46:21.249Z,7.97
2022-12-04T07:48:48.633Z,8.93
2022-12-04T07:51:21.068Z,8.10
2022-12-04T07:53:47.976Z,9.23
2022-12-04T07:56:14.814Z,8.48
2022-12-04T07:58:42.025Z,8.55
2022-12-04T08:01:19.657Z,8.65
2022-12-04T08:03:49.356Z,9.25
2022-12-04T08:06:21.949Z,7.65
2022-12-04T08:08:48.859Z,8.52
2022-12-04T08:11:17.336Z,9.57
2022-12-04T08:13:44.529Z,9.00
2022-12-04T08:16:11.539Z,9.07
2022-12-04T08:18:38.424Z,8.02
2022-12-04T08:21:10.310Z,7.03
2022-12-04T08:23:38.607Z,7.45
2022-12-04T08:26:05.789Z,7.43
2022-12-04T08:28:32.684Z,5.95
2022-12-04T08:31:15.758Z,6.45
2022-12-04T08:33:43.120Z,6.43
2022-12-04T08:36:11.449Z,8.32
2022-12-04T08:38:38.219Z,5.40
2022-12-04T08:41:06.293Z,6.65
2022-12-04T08:43:33.056Z,5.47
2022-12-04T08:46:04.821Z,7.78
2022-12-04T08:48:31.776Z,6.55
2022-12-04T08:50:58.428Z,5.82
2022-12-04T08:53:25.319Z,5.00
2022-12-04T08:55:52.389Z,6.30
2022-12-04T08:58:19.294Z,5.93
2022-12-04T09:00:46.313Z,6.00
2022-12-04T09:03:14.253Z,5.85
2022-12-04T09:05:41.557Z,5.63
2022-12-04T09:08:08.385Z,5.35
2022-12-04T09:10:36.216Z,6.63
2022-12-04T09:13:02.973Z,5.30
2022-12-04T09:15:29.826Z,5.13
2022-12-04T09:17:57.025Z,6.15
2022-12-04T09:20:23.849Z,6.63
2022-12-04T09:23:04.081Z,5.88
2022-12-04T09:25:32.138Z,5.57
2022-12-04T09:27:58.930Z,6.05
2022-12-04T09:30:25.898Z,4.97
2022-12-04T09:32:52.714Z,5.60
2022-12-04T09:35:19.915Z,4.50
2022-12-04T09:37:46.604Z,4.55
2022-12-04T09:40:28.524Z,5.68
2022-12-04T09:43:39.024Z,4.75
2022-12-04T09:46:10.719Z,4.38
2022-12-04T09:48:38.703Z,5.10
2022-12-04T09:51:05.873Z,4.55
2022-12-04T09:54:33.099Z,3.70
2022-12-04T09:57:01.923Z,4.72
2022-12-04T09:59:30.068Z,5.78
2022-12-04T10:01:59.486Z,4.57
2022-12-04T10:04:26.185Z,5.28
2022-12-04T10:07:16.656Z,6.43
2022-12-04T10:09:50.921Z,5.85
2022-12-04T10:12:26.039Z,5.00
2022-12-04T10:15:21.472Z,4.55
2022-12-04T10:18:22.619Z,4.22
2022-12-04T10:21:21.122Z,4.65
2022-12-04T10:23:59.883Z,4.35
2022-12-04T10:26:30.072Z,4.60
2022-12-04T10:29:02.005Z,5.10
2022-12-04T10:31:29.722Z,5.35
2022-12-04T10:34:22.922Z,4.05
2022-12-04T10:36:54.061Z,4.97
2022-12-04T10:39:37.127Z,4.45
2022-12-04T10:42:21.665Z,4.50
2022-12-04T10:44:48.385Z,4.68
2022-12-04T10:47:15.210Z,5.30
2022-12-04T10:49:42.580Z,4.53
2022-12-04T10:52:13.145Z,5.28
2022-12-04T10:54:51.417Z,5.10
2022-12-04T10:57:18.606Z,4.90
2022-12-04T10:59:56.076Z,5.43
2022-12-04T11:02:31.778Z,6.70
2022-12-04T11:05:00.250Z,6.20
2022-12-04T11:07:28.490Z,5.70
2022-12-04T11:10:06.892Z,5.95
2022-12-04T11:12:33.638Z,5.28
2022-12-04T11:15:01.959Z,5.35
2022-12-04T11:17:28.696Z,7.63
2022-12-04T11:20:14.109Z,6.32
2022-12-04T11:22:49.490Z,7.00
2022-12-04T11:25:17.485Z,6.22
2022-12-04T11:27:54.545Z,6.20
2022-12-04T11:30:27.585Z,7.57
2022-12-04T11:32:54.753Z,5.28
2022-12-04T11:35:23.829Z,6.80
2022-12-04T11:38:14.563Z,5.75
2022-12-04T11:41:21.988Z,4.25
2022-12-04T11:43:48.934Z,6.38
2022-12-04T11:46:18.716Z,5.75
2022-12-04T11:48:45.830Z,5.60
2022-12-04T11:51:20.891Z,5.18
2022-12-04T11:54:12.805Z,5.80
2022-12-04T11:56:43.630Z,5.45
2022-12-04T11:59:29.963Z,5.05
2022-12-04T12:02:22.020Z,7.82
2022-12-04T12:04:54.716Z,6.82
2022-12-04T12:07:27.636Z,6.38
2022-12-04T12:10:29.966Z,5.80
2022-12-04T12:13:10.082Z,5.85
2022-12-04T12:16:07.888Z,5.80
2022-12-04T12:18:44.354Z,6.35
2022-12-04T12:21:13.741Z,5.07
2022-12-04T12:23:50.069Z,6.22
2022-12-04T12:26:17.898Z,6.32
2022-12-04T12:29:01.484Z,6.38
2022-12-04T12:31:40.150Z,6.13
2022-12-04T12:34:21.517Z,5.25
2022-12-04T12:36:50.172Z,6.30
2022-12-04T12:39:46.139Z,6.57
2022-12-04T12:42:17.485Z,6.97
2022-12-04T12:45:00.300Z,6.07
2022-12-04T12:47:30.129Z,8.45
2022-12-04T12:50:09.831Z,7.57
2022-12-04T12:52:59.092Z,8.13
2022-12-04T12:55:36.048Z,6.93
2022-12-04T12:58:12.136Z,7.47
2022-12-04T13:00:43.672Z,6.20
2022-12-04T13:03:30.648Z,6.82
2022-12-04T13:06:01.330Z,6.20
2022-12-04T13:08:49.263Z,5.75
2022-12-04T13:11:21.786Z,5.72
2022-12-04T13:13:49.349Z,6.35
2022-12-04T13:16:28.092Z,5.30
2022-12-04T13:19:20.726Z,6.15
2022-12-04T13:21:50.052Z,6.20
2022-12-04T13:24:22.722Z,7.68
2022-12-04T13:27:26.216Z,7.95
2022-12-04T13:30:19.166Z,8.85
2022-12-04T13:33:04.723Z,7.45
2022-12-04T13:35:47.624Z,7.72
2022-12-04T13:38:14.259Z,7.18
2022-12-04T13:40:45.245Z,8.00
2022-12-04T13:43:21.388Z,6.70
2022-12-04T13:45:48.980Z,6.32
2022-12-04T13:48:27.017Z,6.43
2022-12-04T13:51:04.909Z,7.22
2022-12-04T13:53:37.529Z,5.93
2022-12-04T13:56:09.429Z,6.70
2022-12-04T13:58:38.849Z,6.05
2022-12-04T14:01:13.225Z,5.70
2022-12-04T14:03:48.096Z,5.13
2022-12-04T14:06:38.545Z,5.57
2022-12-04T14:09:07.838Z,4.82
2022-12-04T14:11:43.275Z,4.95
2022-12-04T14:14:28.105Z,5.82
2022-12-04T14:16:56.448Z,5.63
2022-12-04T14:19:33.969Z,5.18
2022-12-04T14:22:00.858Z,5.75
2022-12-04T14:24:32.368Z,5.82
2022-12-04T14:27:14.580Z,4.50
2022-12-04T14:29:53.780Z,5.40
2022-12-04T14:32:27.966Z,5.63
2022-12-04T14:34:55.155Z,5.85
2022-12-04T14:37:25.758Z,6.30
2022-12-04T14:39:52.504Z,4.70
2022-12-04T14:42:27.430Z,4.50
2022-12-04T14:44:58.851Z,4.60
2022-12-04T14:47:28.954Z,5.75
2022-12-04T14:50:13.910Z,8.00
2022-12-04T14:52:52.706Z,7.13
2022-12-04T14:55:45.786Z,6.75
2022-12-04T14:58:30.895Z,6.85
2022-12-04T15:01:05.861Z,6.90
2022-12-04T15:03:35.872Z,6.78
2022-12-04T15:06:07.291Z,6.43
2022-12-04T15:08:34.202Z,7.13
2022-12-04T15:11:19.500Z,7.18
2022-12-04T15:13:47.153Z,7.75
2022-12-04T15:16:23.137Z,9.10
2022-12-04T15:18:57.709Z,8.02
2022-12-04T15:21:36.704Z,8.93
2022-12-04T15:24:11.676Z,5.85
2022-12-04T15:26:38.977Z,6.28
2022-12-04T15:29:06.269Z,6.85
2022-12-04T15:31:43.453Z,5.80
2022-12-04T15:34:14.777Z,6.85
2022-12-04T15:36:46.369Z,6.18
2022-12-04T15:39:16.513Z,5.95
2022-12-04T15:41:43.344Z,5.35
2022-12-04T15:44:30.724Z,6.18
2022-12-04T15:47:00.387Z,5.90
2022-12-04T15:49:29.220Z,6.03
2022-12-04T15:52:15.293Z,5.68
2022-12-04T15:54:44.250Z,5.40
2022-12-04T15:57:39.439Z,5.40
2022-12-04T16:00:22.025Z,5.63
2022-12-04T16:02:48.875Z,5.13
2022-12-04T16:05:21.892Z,6.40
2022-12-04T16:07:56.926Z,6.03
2022-12-04T16:10:24.677Z,4.68
2022-12-04T16:12:58.500Z,7.72
2022-12-04T16:15:36.994Z,7.45
2022-12-04T16:18:06.014Z,9.85
2022-12-04T16:20:36.842Z,7.68
2022-12-04T16:23:03.785Z,9.18
2022-12-04T16:25:31.663Z,7.07
2022-12-04T16:27:59.228Z,8.93
2022-12-04T16:30:29.934Z,7.18
2022-12-04T16:32:58.013Z,7.25
2022-12-04T16:35:25.540Z,7.75
2022-12-04T16:37:52.435Z,7.82
2022-12-04T16:40:19.167Z,7.57
2022-12-04T16:42:46.531Z,7.57
2022-12-04T16:45:32.033Z,7.90
2022-12-04T16:47:58.775Z,7.40
2022-12-04T16:50:27.110Z,7.90
2022-12-04T16:52:54.368Z,9.45
2022-12-04T16:55:26.601Z,10.63
2022-12-04T16:57:53.397Z,8.48
2022-12-04T17:00:20.330Z,10.35
2022-12-04T17:02:47.119Z,7.40
2022-12-04T17:05:21.809Z,8.15
2022-12-04T17:07:49.155Z,8.57
2022-12-04T17:10:21.812Z,7.90
2022-12-04T17:12:52.193Z,7.35
2022-12-04T17:15:19.594Z,7.07
2022-12-04T17:17:46.276Z,7.05
2022-12-04T17:20:15.700Z,8.07
2022-12-04T17:22:42.511Z,8.88
2022-12-04T17:25:09.585Z,6.97
2022-12-04T17:27:36.341Z,7.55
2022-12-04T17:30:04.928Z,6.75
2022-12-04T17:32:31.931Z,7.25
2022-12-04T17:34:59.715Z,8.75
2022-12-04T17:37:26.704Z,9.32
2022-12-04T17:39:55.162Z,10.50
2022-12-04T17:42:21.978Z,9.18
2022-12-04T17:44:48.782Z,7.85
2022-12-04T17:47:16.366Z,7.72
2022-12-04T17:49:44.068Z,6.63
2022-12-04T17:52:10.967Z,6.55
2022-12-04T17:54:38.450Z,9.75
2022-12-04T17:57:05.508Z,8.07
2022-12-04T17:59:32.588Z,7.38
2022-12-04T18:02:00.123Z,6.57
2022-12-04T18:04:27.510Z,8.68
2022-12-04T18:06:56.960Z,7.20
2022-12-04T18:09:23.838Z,8.88
2022-12-04T18:11:51.018Z,8.00
2022-12-04T18:14:19.369Z,7.63
2022-12-04T18:16:52.783Z,7.50
2022-12-04T18:19:21.616Z,8.80
2022-12-04T18:21:48.419Z,9.18
2022-12-04T18:24:15.365Z,7.90
2022-12-04T18:26:44.701Z,6.45
2022-12-04T18:29:13.062Z,10.90
2022-12-04T18:31:40.408Z,8.57
2022-12-04T18:34:07.424Z,8.35
2022-12-04T18:36:34.936Z,8.68
2022-12-04T18:39:03.729Z,8.25
2022-12-04T18:41:30.702Z,9.48
2022-12-04T18:43:58.935Z,8.23
2022-12-04T18:46:25.946Z,8.45
2022-12-04T18:48:53.870Z,8.60
2022-12-04T18:51:26.859Z,7.10
2022-12-04T18:53:55.639Z,7.25
2022-12-04T18:56:22.559Z,8.63
2022-12-04T18:58:49.345Z,9.45
2022-12-04T19:01:19.423Z,9.32
2022-12-04T19:03:47.015Z,9.05
2022-12-04T19:06:14.751Z,8.05
2022-12-04T19:08:43.420Z,7.13
2022-12-04T19:11:14.941Z,8.13
2022-12-04T19:13:41.858Z,7.40
2022-12-04T19:16:13.291Z,7.00
2022-12-04T19:18:40.342Z,5.82
2022-12-04T19:21:07.478Z,7.25
2022-12-04T19:23:34.453Z,7.35
2022-12-04T19:26:01.298Z,7.13
2022-12-04T19:28:28.281Z,7.35
2022-12-04T19:30:55.233Z,10.38
2022-12-04T19:33:22.653Z,7.10
2022-12-04T19:36:05.674Z,8.55
2022-12-04T19:38:32.835Z,7.85
2022-12-04T19:41:19.568Z,8.85
2022-12-04T19:43:48.940Z,8.35
2022-12-04T19:46:17.840Z,8.52
2022-12-04T19:48:47.339Z,6.68
2022-12-04T19:51:15.374Z,7.15
2022-12-04T19:53:42.560Z,5.97
2022-12-04T19:56:17.134Z,8.18
2022-12-04T19:58:44.076Z,7.85
2022-12-04T20:01:13.183Z,7.22
2022-12-04T20:03:40.110Z,9.38
2022-12-04T20:06:26.629Z,8.63
2022-12-04T20:08:55.445Z,8.75
2022-12-04T20:11:22.460Z,7.15
2022-12-04T20:13:50.043Z,7.82
2022-12-04T20:16:18.428Z,9.02
2022-12-04T20:18:45.382Z,9.30
2022-12-04T20:21:12.408Z,8.73
2022-12-04T20:23:46.520Z,9.57
2022-12-04T20:26:14.003Z,12.02
2022-12-04T20:28:41.024Z,9.15
2022-12-04T20:31:16.101Z,7.53
2022-12-04T20:33:43.885Z,8.10
2022-12-04T20:36:10.684Z,9.23
2022-12-04T20:38:37.563Z,8.45
2022-12-04T20:41:05.166Z,7.95
2022-12-04T20:43:32.316Z,8.40
2022-12-04T20:45:59.273Z,9.60
2022-12-04T20:48:26.804Z,7.15
2022-12-04T20:50:53.631Z,7.07
2022-12-04T20:53:20.509Z,9.50
2022-12-04T20:55:57.402Z,6.93
2022-12-04T20:58:24.583Z,6.18
2022-12-04T21:00:52.197Z,11.07
2022-12-04T21:03:19.420Z,10.35
2022-12-04T21:05:50.095Z,7.90
2022-12-04T21:08:37.320Z,9.20
2022-12-04T21:11:04.209Z,8.23
2022-12-04T21:13:49.406Z,8.85
2022-12-04T21:16:16.420Z,8.00
2022-12-04T21:18:43.158Z,6.05
2022-12-04T21:21:10.010Z,8.25
2022-12-04T21:23:37.784Z,8.43
2022-12-04T21:26:05.526Z,7.82
2022-12-04T21:28:33.241Z,7.25
2022-12-04T21:31:06.707Z,8.30
2022-12-04T21:36:05.962Z,7.88
2022-12-04T21:38:34.180Z,8.63
2022-12-04T21:41:01.961Z,8.48
2022-12-04T21:43:29.514Z,7.57
2022-12-04T21:46:09.564Z,8.23
2022-12-04T21:48:37.170Z,8.60
2022-12-04T21:51:16.859Z,9.73
2022-12-04T21:53:57.932Z,9.57
2022-12-04T21:56:25.013Z,9.10
2022-12-04T21:58:52.210Z,9.52
2022-12-04T22:01:20.233Z,8.85
2022-12-04T22:03:48.669Z,9.85
2022-12-04T22:06:15.434Z,8.15
2022-12-04T22:08:43.004Z,9.90
2022-12-04T22:11:10.686Z,9.05
2022-12-04T22:13:37.707Z,9.75
2022-12-04T22:16:07.105Z,8.90
2022-12-04T22:18:37.095Z,7.63
2022-12-04T22:21:08.169Z,8.55
2022-12-04T22:23:35.126Z,8.68
2022-12-04T22:26:13.013Z,6.68
2022-12-04T22:28:40.062Z,9.35
2022-12-04T22:31:08.861Z,9.57
2022-12-04T22:33:36.030Z,9.35
2022-12-04T22:36:07.772Z,9.43
2022-12-04T22:38:47.283Z,11.60
2022-12-04T22:41:22.727Z,11.05
2022-12-04T22:43:49.510Z,9.60
2022-12-04T22:46:16.463Z,9.15
2022-12-04T22:48:44.004Z,9.98
2022-12-04T22:51:18.762Z,12.20
2022-12-04T22:53:51.076Z,12.25
2022-12-04T22:56:33.489Z,8.93
2022-12-04T22:59:00.378Z,9.88
2022-12-04T23:01:31.816Z,10.18
2022-12-04T23:03:58.774Z,9.80
2022-12-04T23:06:27.904Z,10.57
2022-12-04T23:08:56.190Z,12.18
2022-12-04T23:11:23.488Z,10.57
2022-12-04T23:13:51.514Z,10.48
2022-12-04T23:16:20.522Z,11.30
2022-12-04T23:18:50.292Z,12.25
2022-12-04T23:21:17.605Z,10.95
2022-12-04T23:23:44.897Z,13.77
2022-12-04T23:26:13.589Z,12.00
2022-12-04T23:28:40.465Z,13.77
2022-12-04T23:31:07.576Z,11.02
2022-12-04T23:33:34.325Z,11.40
2022-12-04T23:36:02.228Z,12.05
2022-12-04T23:38:29.543Z,13.73
2022-12-04T23:41:11.459Z,11.50
2022-12-04T23:43:38.407Z,12.00
2022-12-04T23:46:10.680Z,14.75
2022-12-04T23:48:38.981Z,14.43
2022-12-04T23:51:06.780Z,13.52
2022-12-04T23:53:34.164Z,13.13
2022-12-04T23:56:10.766Z,13.20
2022-12-04T23:58:37.627Z,16.30
